Time;durP1;ratioP1;P1;durP2;ratioP2;P2;SDS_P1;SDS_P2;PMS_P1;PMS_P2;Temp;Humidity;BMP_temperature;BMP_pressure;BME280_temperature;BME280_humidity;BME280_pressure;Samples;Min_cycle;Max_cycle;Signal;HPM_P1;HPM_P2
2021/06/27 00:02:39;;;;;;;3.89;3.56;;;;;;;21.66;68.19;100371.44;;;;-52
2021/06/27 00:05:39;;;;;;;3.91;3.54;;;;;;;21.66;68.25;100374.05;;;;-52
2021/06/27 00:08:39;;;;;;;3.79;3.45;;;;;;;21.65;68.23;100376.68;;;;-52
2021/06/27 00:11:39;;;;;;;4.06;3.66;;;;;;;21.64;68.26;100372.45;;;;-52
2021/06/27 00:14:39;;;;;;;3.75;3.45;;;;;;;21.65;68.30;100377.01;;;;-52
2021/06/27 00:17:39;;;;;;;3.66;3.32;;;;;;;21.64;68.26;100379.30;;;;-52
2021/06/27 00:20:39;;;;;;;5.18;3.65;;;;;;;21.63;68.28;100373.58;;;;-52
2021/06/27 00:23:39;;;;;;;4.11;3.71;;;;;;;21.63;68.25;100368.77;;;;-52
2021/06/27 00:26:39;;;;;;;4.01;3.54;;;;;;;21.62;68.21;100372.95;;;;-52
2021/06/27 00:29:39;;;;;;;3.72;3.38;;;;;;;21.62;68.22;100377.34;;;;-52
2021/06/27 00:32:39;;;;;;;3.90;3.48;;;;;;;21.63;68.27;100381.02;;;;-52
2021/06/27 00:35:39;;;;;;;3.89;3.49;;;;;;;21.63;68.27;100383.95;;;;-52
2021/06/27 00:38:39;;;;;;;3.83;3.49;;;;;;;21.61;68.29;100382.56;;;;-52
2021/06/27 00:41:39;;;;;;;4.84;3.63;;;;;;;21.60;68.28;100378.23;;;;-52
2021/06/27 00:44:39;;;;;;;3.83;3.37;;;;;;;21.60;68.27;100374.42;;;;-52
2021/06/27 00:47:39;;;;;;;3.88;3.58;;;;;;;21.60;68.24;100375.13;;;;-52
2021/06/27 00:50:39;;;;;;;3.99;3.59;;;;;;;21.60;68.28;100377.66;;;;-52
2021/06/27 00:53:39;;;;;;;3.54;3.24;;;;;;;21.60;68.24;100380.92;;;;-52
2021/06/27 00:56:39;;;;;;;3.62;3.32;;;;;;;21.59;68.31;100383.14;;;;-52
2021/06/27 00:59:39;;;;;;;3.98;3.63;;;;;;;21.58;68.19;100382.59;;;;-52
2021/06/27 01:02:39;;;;;;;3.86;3.40;;;;;;;21.58;68.26;100384.05;;;;-52
2021/06/27 01:05:39;;;;;;;3.85;3.44;;;;;;;21.57;68.32;100380.20;;;;-52
2021/06/27 01:08:39;;;;;;;3.66;3.36;;;;;;;21.57;68.23;100381.44;;;;-52
2021/06/27 01:11:39;;;;;;;3.65;3.35;;;;;;;21.57;68.29;100386.98;;;;-52
2021/06/27 01:14:39;;;;;;;4.21;3.71;;;;;;;21.57;68.29;100389.34;;;;-52
2021/06/27 01:17:39;;;;;;;3.73;3.43;;;;;;;21.56;68.34;100389.61;;;;-52
2021/06/27 01:20:39;;;;;;;3.63;3.33;;;;;;;21.56;68.26;100385.53;;;;-52
2021/06/27 01:23:39;;;;;;;3.63;3.33;;;;;;;21.56;68.27;100387.14;;;;-52
2021/06/27 01:26:39;;;;;;;3.71;3.40;;;;;;;21.55;68.30;100380.80;;;;-52
2021/06/27 01:29:39;;;;;;;3.49;3.19;;;;;;;21.55;68.28;100376.88;;;;-52
2021/06/27 01:32:39;;;;;;;3.60;3.30;;;;;;;21.55;68.28;100377.20;;;;-52
2021/06/27 01:35:39;;;;;;;3.65;3.35;;;;;;;21.54;68.30;100382.52;;;;-52
2021/06/27 01:38:39;;;;;;;3.73;3.41;;;;;;;21.54;68.29;100381.67;;;;-52
2021/06/27 01:41:39;;;;;;;3.57;3.27;;;;;;;21.54;68.28;100387.56;;;;-52
2021/06/27 01:44:39;;;;;;;3.65;3.35;;;;;;;21.54;68.30;100393.17;;;;-52
2021/06/27 01:47:39;;;;;;;4.24;3.57;;;;;;;21.53;68.34;100398.08;;;;-52
2021/06/27 01:50:39;;;;;;;3.53;3.23;;;;;;;21.53;68.28;100397.59;;;;-52
2021/06/27 01:53:39;;;;;;;3.67;3.37;;;;;;;21.53;68.28;100397.77;;;;-52
2021/06/27 01:56:39;;;;;;;3.65;3.35;;;;;;;21.53;68.31;100393.52;;;;-52
2021/06/27 01:59:39;;;;;;;3.80;3.35;;;;;;;21.52;68.28;100388.62;;;;-52
2021/06/27 02:02:39;;;;;;;3.49;3.19;;;;;;;21.52;68.29;100387.72;;;;-52
2021/06/27 02:05:39;;;;;;;3.73;3.19;;;;;;;21.51;68.30;100385.12;;;;-52
2021/06/27 02:08:39;;;;;;;3.39;3.09;;;;;;;21.51;68.25;100381.21;;;;-52
2021/06/27 02:11:39;;;;;;;3.67;3.37;;;;;;;21.51;68.29;100383.25;;;;-52
2021/06/27 02:14:39;;;;;;;3.61;3.29;;;;;;;21.50;68.31;100383.91;;;;-52
2021/06/27 02:17:39;;;;;;;3.93;3.41;;;;;;;21.50;68.32;100390.50;;;;-52
2021/06/27 02:20:39;;;;;;;3.51;3.21;;;;;;;21.50;68.30;100392.56;;;;-52
2021/06/27 02:23:39;;;;;;;3.57;3.27;;;;;;;21.50;68.31;100395.88;;;;-52
2021/06/27 02:26:39;;;;;;;3.81;3.50;;;;;;;21.49;68.25;100388.71;;;;-52
2021/06/27 02:29:39;;;;;;;3.73;3.43;;;;;;;21.49;68.26;100381.86;;;;-52
2021/06/27 02:32:39;;;;;;;3.49;3.19;;;;;;;21.48;68.32;100379.27;;;;-52
2021/06/27 02:35:39;;;;;;;3.39;3.09;;;;;;;21.48;68.26;100370.23;;;;-52
2021/06/27 02:38:39;;;;;;;3.49;3.19;;;;;;;21.48;68.24;100361.25;;;;-52
2021/06/27 02:41:39;;;;;;;3.71;3.41;;;;;;;21.47;68.32;100354.31;;;;-52
2021/06/27 02:44:39;;;;;;;3.41;3.11;;;;;;;21.47;68.27;100348.11;;;;-52
2021/06/27 02:47:39;;;;;;;2.98;2.78;;;;;;;21.47;68.30;100345.50;;;;-52
2021/06/27 02:50:40;;;;;;;3.47;3.17;;;;;;;21.47;68.29;100342.33;;;;-52
2021/06/27 02:53:39;;;;;;;3.36;3.09;;;;;;;21.47;68.27;100344.45;;;;-52
2021/06/27 02:56:39;;;;;;;3.60;3.30;;;;;;;21.47;68.26;100339.48;;;;-52
2021/06/27 02:59:39;;;;;;;3.37;3.10;;;;;;;21.46;68.31;100330.03;;;;-52
2021/06/27 03:02:39;;;;;;;3.72;3.42;;;;;;;21.46;68.27;100323.42;;;;-52
2021/06/27 03:05:39;;;;;;;3.65;3.29;;;;;;;21.46;68.24;100318.59;;;;-52
2021/06/27 03:08:39;;;;;;;3.57;3.27;;;;;;;21.45;68.23;100312.00;;;;-52
2021/06/27 03:11:39;;;;;;;3.45;3.15;;;;;;;21.45;68.23;100304.33;;;;-52
2021/06/27 03:14:39;;;;;;;3.55;3.25;;;;;;;21.45;68.18;100301.00;;;;-52
2021/06/27 03:17:39;;;;;;;3.43;3.13;;;;;;;21.45;68.28;100309.31;;;;-52
2021/06/27 03:20:39;;;;;;;3.53;3.23;;;;;;;21.44;68.25;100326.69;;;;-52
2021/06/27 03:23:39;;;;;;;3.03;2.83;;;;;;;21.44;68.25;100334.03;;;;-52
2021/06/27 03:26:39;;;;;;;3.42;3.12;;;;;;;21.44;68.28;100321.72;;;;-52
2021/06/27 03:29:39;;;;;;;3.57;3.27;;;;;;;21.44;68.20;100314.39;;;;-52
2021/06/27 03:32:39;;;;;;;3.47;3.17;;;;;;;21.43;68.24;100314.78;;;;-52
2021/06/27 03:35:39;;;;;;;3.45;3.15;;;;;;;21.44;68.25;100323.77;;;;-52
2021/06/27 03:38:45;;;;;;;3.22;2.98;;;;;;;21.44;68.18;100316.52;;;;-52
2021/06/27 03:41:41;;;;;;;3.25;2.99;;;;;;;21.43;68.21;100303.12;;;;-52
2021/06/27 03:44:39;;;;;;;3.16;2.92;;;;;;;21.42;68.16;100286.41;;;;-52
2021/06/27 03:47:39;;;;;;;3.37;3.07;;;;;;;21.43;68.23;100286.83;;;;-52
2021/06/27 03:50:39;;;;;;;3.47;3.17;;;;;;;21.43;68.21;100292.61;;;;-52
2021/06/27 03:53:39;;;;;;;3.10;2.89;;;;;;;21.43;68.16;100304.44;;;;-52
2021/06/27 03:56:39;;;;;;;3.47;3.17;;;;;;;21.42;68.18;100310.64;;;;-52
2021/06/27 03:59:39;;;;;;;3.23;2.93;;;;;;;21.42;68.15;100311.13;;;;-52
2021/06/27 04:02:39;;;;;;;3.87;3.08;;;;;;;21.41;68.21;100309.62;;;;-52
2021/06/27 04:05:39;;;;;;;3.21;2.97;;;;;;;21.42;68.18;100306.22;;;;-52
2021/06/27 04:08:39;;;;;;;3.38;3.08;;;;;;;21.41;68.25;100317.20;;;;-52
2021/06/27 04:11:39;;;;;;;3.13;2.87;;;;;;;21.40;68.20;100321.21;;;;-52
2021/06/27 04:14:39;;;;;;;3.50;3.20;;;;;;;21.40;68.13;100316.81;;;;-52
2021/06/27 04:17:39;;;;;;;2.96;2.76;;;;;;;21.40;68.21;100313.38;;;;-52
2021/06/27 04:20:39;;;;;;;3.43;3.13;;;;;;;21.40;68.22;100312.81;;;;-52
2021/06/27 04:23:39;;;;;;;3.53;3.23;;;;;;;21.40;68.13;100313.55;;;;-51
2021/06/27 04:26:39;;;;;;;3.25;2.98;;;;;;;21.40;68.15;100324.23;;;;-52
2021/06/27 04:29:39;;;;;;;3.41;3.11;;;;;;;21.40;68.18;100331.56;;;;-52
2021/06/27 04:32:39;;;;;;;3.23;2.96;;;;;;;21.40;68.19;100332.88;;;;-51
2021/06/27 04:35:39;;;;;;;3.31;3.01;;;;;;;21.39;68.17;100333.30;;;;-52
2021/06/27 04:38:39;;;;;;;3.27;2.97;;;;;;;21.39;68.18;100343.23;;;;-52
2021/06/27 04:41:39;;;;;;;3.29;2.99;;;;;;;21.39;68.15;100347.31;;;;-52
2021/06/27 04:44:39;;;;;;;3.25;3.02;;;;;;;21.39;68.15;100347.31;;;;-52
2021/06/27 04:47:39;;;;;;;3.08;2.84;;;;;;;21.39;68.18;100340.12;;;;-52
2021/06/27 04:50:39;;;;;;;3.31;3.01;;;;;;;21.39;68.06;100341.67;;;;-52
2021/06/27 04:53:39;;;;;;;3.37;3.07;;;;;;;21.39;68.14;100353.81;;;;-52
2021/06/27 04:56:39;;;;;;;3.27;2.97;;;;;;;21.39;68.08;100363.84;;;;-51
2021/06/27 04:59:39;;;;;;;3.21;2.91;;;;;;;21.39;68.18;100358.95;;;;-52
2021/06/27 05:02:39;;;;;;;2.92;2.72;;;;;;;21.39;68.13;100354.06;;;;-52
2021/06/27 05:05:39;;;;;;;3.01;2.81;;;;;;;21.38;68.13;100348.94;;;;-52
2021/06/27 05:08:39;;;;;;;3.18;2.89;;;;;;;21.38;68.14;100340.55;;;;-52
2021/06/27 05:11:39;;;;;;;3.24;2.95;;;;;;;21.38;68.17;100326.12;;;;-52
2021/06/27 05:14:39;;;;;;;3.21;2.99;;;;;;;21.38;68.12;100321.05;;;;-52
2021/06/27 05:17:39;;;;;;;3.31;3.01;;;;;;;21.38;68.08;100319.44;;;;-52
2021/06/27 05:20:39;;;;;;;3.20;2.87;;;;;;;21.37;68.10;100317.16;;;;-52
2021/06/27 05:23:39;;;;;;;3.07;2.85;;;;;;;21.38;68.11;100317.80;;;;-52
2021/06/27 05:26:39;;;;;;;3.25;2.95;;;;;;;21.38;68.05;100316.58;;;;-52
2021/06/27 05:29:39;;;;;;;3.04;2.84;;;;;;;21.38;68.09;100313.97;;;;-52
2021/06/27 05:32:39;;;;;;;3.09;2.89;;;;;;;21.37;68.05;100318.20;;;;-52
2021/06/27 05:35:39;;;;;;;3.28;3.01;;;;;;;21.38;68.09;100321.15;;;;-52
2021/06/27 05:38:39;;;;;;;3.28;2.98;;;;;;;21.37;68.05;100319.94;;;;-52
2021/06/27 05:41:39;;;;;;;3.06;2.80;;;;;;;21.37;68.02;100312.33;;;;-52
2021/06/27 05:44:39;;;;;;;2.96;2.76;;;;;;;21.38;68.05;100313.33;;;;-52
2021/06/27 05:47:39;;;;;;;3.11;2.83;;;;;;;21.37;68.05;100314.22;;;;-52
2021/06/27 05:50:39;;;;;;;3.08;2.80;;;;;;;21.37;68.00;100315.51;;;;-52
2021/06/27 05:53:40;;;;;;;3.00;2.74;;;;;;;21.36;68.02;100317.07;;;;-52
2021/06/27 05:56:39;;;;;;;3.11;2.77;;;;;;;21.37;68.06;100318.53;;;;-52
2021/06/27 05:59:39;;;;;;;2.93;2.73;;;;;;;21.37;67.98;100321.73;;;;-52
2021/06/27 06:02:39;;;;;;;3.11;2.81;;;;;;;21.36;67.98;100321.31;;;;-52
2021/06/27 06:05:39;;;;;;;2.91;2.71;;;;;;;21.36;67.94;100326.61;;;;-52
2021/06/27 06:08:40;;;;;;;2.89;2.69;;;;;;;21.37;68.00;100329.45;;;;-52
2021/06/27 06:11:39;;;;;;;3.10;2.90;;;;;;;21.36;68.01;100327.58;;;;-52
2021/06/27 06:14:39;;;;;;;2.97;2.77;;;;;;;21.36;67.99;100327.18;;;;-51
2021/06/27 06:17:39;;;;;;;4.09;3.77;;;;;;;21.39;68.22;100328.70;;;;-52
2021/06/27 06:20:39;;;;;;;4.93;4.13;;;;;;;21.40;68.51;100320.98;;;;-50
2021/06/27 06:23:39;;;;;;;6.61;4.95;;;;;;;21.42;68.57;100318.28;;;;-54
2021/06/27 06:26:39;;;;;;;6.41;5.43;;;;;;;21.43;68.45;100317.88;;;;-49
2021/06/27 06:29:39;;;;;;;8.00;5.36;;;;;;;21.46;68.76;100323.44;;;;-51
2021/06/27 06:32:39;;;;;;;7.53;5.77;;;;;;;21.46;68.93;100323.59;;;;-51
2021/06/27 06:35:39;;;;;;;8.39;5.74;;;;;;;21.46;68.90;100322.94;;;;-52
2021/06/27 06:38:39;;;;;;;8.06;5.81;;;;;;;21.45;68.83;100321.78;;;;-51
2021/06/27 06:41:39;;;;;;;7.87;5.59;;;;;;;21.46;68.90;100320.50;;;;-51
2021/06/27 06:44:39;;;;;;;7.01;5.53;;;;;;;21.46;68.88;100316.08;;;;-52
2021/06/27 06:47:39;;;;;;;6.89;5.79;;;;;;;21.47;68.78;100315.83;;;;-52
2021/06/27 06:50:39;;;;;;;9.97;5.78;;;;;;;21.47;68.67;100316.56;;;;-51
2021/06/27 06:53:39;;;;;;;8.00;5.44;;;;;;;21.47;68.73;100309.47;;;;-51
2021/06/27 06:56:39;;;;;;;7.22;5.17;;;;;;;21.47;68.63;100309.38;;;;-51
2021/06/27 06:59:39;;;;;;;6.05;5.18;;;;;;;21.47;68.63;100309.70;;;;-51
2021/06/27 07:02:39;;;;;;;6.27;5.47;;;;;;;21.47;68.59;100310.29;;;;-52
2021/06/27 07:05:39;;;;;;;7.65;5.48;;;;;;;21.47;68.54;100312.23;;;;-51
2021/06/27 07:08:39;;;;;;;5.97;5.26;;;;;;;21.47;68.53;100309.97;;;;-52
2021/06/27 07:11:39;;;;;;;5.66;5.16;;;;;;;21.48;68.44;100312.06;;;;-52
2021/06/27 07:14:39;;;;;;;5.85;5.10;;;;;;;21.48;68.45;100312.98;;;;-51
2021/06/27 07:17:39;;;;;;;5.47;4.97;;;;;;;21.48;68.43;100310.30;;;;-51
2021/06/27 07:20:39;;;;;;;5.78;5.21;;;;;;;21.48;68.33;100311.91;;;;-51
2021/06/27 07:23:39;;;;;;;5.32;4.87;;;;;;;21.47;68.35;100310.36;;;;-51
2021/06/27 07:26:39;;;;;;;6.10;5.05;;;;;;;21.48;68.30;100304.34;;;;-51
2021/06/27 07:29:39;;;;;;;5.41;4.91;;;;;;;21.47;68.35;100304.98;;;;-51
2021/06/27 07:32:39;;;;;;;5.79;5.28;;;;;;;21.48;68.32;100304.73;;;;-52
2021/06/27 07:35:39;;;;;;;5.53;5.03;;;;;;;21.48;68.28;100300.76;;;;-51
2021/06/27 07:38:39;;;;;;;5.35;4.85;;;;;;;21.47;68.34;100294.06;;;;-51
2021/06/27 07:41:39;;;;;;;6.49;4.97;;;;;;;21.48;68.27;100295.45;;;;-51
2021/06/27 07:44:39;;;;;;;5.50;4.97;;;;;;;21.48;68.26;100289.73;;;;-51
2021/06/27 07:47:39;;;;;;;5.17;4.76;;;;;;;21.48;68.19;100292.82;;;;-51
2021/06/27 07:50:39;;;;;;;5.10;4.66;;;;;;;21.48;68.18;100298.06;;;;-51
2021/06/27 07:53:39;;;;;;;5.76;4.76;;;;;;;21.48;68.19;100299.05;;;;-51
2021/06/27 07:56:39;;;;;;;5.18;4.69;;;;;;;21.48;68.27;100306.29;;;;-50
2021/06/27 07:59:39;;;;;;;5.48;4.98;;;;;;;21.49;68.35;100304.41;;;;-50
2021/06/27 08:02:39;;;;;;;5.25;4.63;;;;;;;21.50;68.39;100297.08;;;;-49
2021/06/27 08:05:39;;;;;;;4.84;4.44;;;;;;;21.53;68.50;100303.66;;;;-51
2021/06/27 08:08:39;;;;;;;5.48;4.95;;;;;;;21.54;68.62;100303.67;;;;-50
2021/06/27 08:11:39;;;;;;;7.12;4.57;;;;;;;21.56;68.72;100300.94;;;;-55
2021/06/27 08:14:39;;;;;;;6.05;4.83;;;;;;;21.58;68.74;100296.20;;;;-51
2021/06/27 08:17:39;;;;;;;5.00;4.57;;;;;;;21.59;68.77;100292.28;;;;-49
2021/06/27 08:20:39;;;;;;;5.17;4.77;;;;;;;21.60;68.83;100287.49;;;;-48
2021/06/27 08:23:39;;;;;;;4.98;4.53;;;;;;;21.63;68.89;100289.19;;;;-48
2021/06/27 08:26:39;;;;;;;5.27;4.33;;;;;;;21.64;68.90;100285.57;;;;-51
2021/06/27 08:29:39;;;;;;;4.78;4.38;;;;;;;21.65;68.83;100289.41;;;;-50
2021/06/27 08:32:42;;;;;;;4.72;4.32;;;;;;;21.66;68.87;100289.14;;;;-47
2021/06/27 08:35:40;;;;;;;5.03;4.62;;;;;;;21.67;68.88;100287.52;;;;-50
2021/06/27 08:38:39;;;;;;;4.81;4.41;;;;;;;21.69;68.93;100277.73;;;;-49
2021/06/27 08:41:39;;;;;;;5.26;4.50;;;;;;;21.69;68.87;100273.90;;;;-57
2021/06/27 08:44:39;;;;;;;4.69;4.29;;;;;;;21.69;68.93;100277.00;;;;-59
2021/06/27 08:47:39;;;;;;;4.67;4.27;;;;;;;21.70;68.80;100275.17;;;;-53
2021/06/27 08:50:39;;;;;;;8.10;4.40;;;;;;;21.70;68.86;100278.86;;;;-53
2021/06/27 08:53:39;;;;;;;6.28;4.25;;;;;;;21.68;68.83;100273.55;;;;-53
2021/06/27 08:56:39;;;;;;;4.66;4.26;;;;;;;21.69;68.86;100273.90;;;;-53
2021/06/27 08:59:39;;;;;;;4.23;3.85;;;;;;;21.69;68.81;100271.45;;;;-53
2021/06/27 09:02:39;;;;;;;5.50;4.11;;;;;;;21.69;68.71;100269.66;;;;-53
2021/06/27 09:05:39;;;;;;;4.61;4.14;;;;;;;21.69;68.65;100265.25;;;;-53
2021/06/27 09:08:39;;;;;;;4.65;4.23;;;;;;;21.69;68.60;100264.69;;;;-53
2021/06/27 09:11:39;;;;;;;5.03;4.17;;;;;;;21.68;68.53;100261.97;;;;-54
2021/06/27 09:14:39;;;;;;;4.57;4.05;;;;;;;21.70;68.58;100260.83;;;;-51
2021/06/27 09:17:39;;;;;;;4.45;4.04;;;;;;;21.72;68.72;100262.94;;;;-52
2021/06/27 09:20:39;;;;;;;4.92;4.05;;;;;;;21.74;68.78;100260.48;;;;-49
2021/06/27 09:23:39;;;;;;;4.60;4.06;;;;;;;21.75;68.81;100258.53;;;;-54
2021/06/27 09:26:39;;;;;;;4.63;4.23;;;;;;;21.76;68.78;100266.17;;;;-52
2021/06/27 09:29:39;;;;;;;4.33;4.03;;;;;;;21.77;68.85;100266.51;;;;-49
2021/06/27 09:32:39;;;;;;;4.63;3.96;;;;;;;21.78;68.79;100265.26;;;;-50
2021/06/27 09:35:39;;;;;;;4.35;3.83;;;;;;;21.79;68.90;100262.34;;;;-51
2021/06/27 09:38:40;;;;;;;4.18;3.79;;;;;;;21.80;68.85;100260.94;;;;-49
2021/06/27 09:41:39;;;;;;;4.56;4.12;;;;;;;21.81;68.90;100263.85;;;;-54
2021/06/27 09:44:42;;;;;;;4.61;3.85;;;;;;;21.82;68.98;100261.00;;;;-52
2021/06/27 09:47:39;;;;;;;5.33;3.95;;;;;;;21.83;68.91;100268.17;;;;-51
2021/06/27 09:50:39;;;;;;;4.16;3.76;;;;;;;21.84;68.97;100270.45;;;;-56
2021/06/27 09:53:41;;;;;;;4.41;4.01;;;;;;;21.85;69.04;100267.34;;;;-50
2021/06/27 09:56:39;;;;;;;4.29;3.89;;;;;;;21.85;68.98;100268.25;;;;-51
2021/06/27 09:59:40;;;;;;;4.22;3.82;;;;;;;21.86;68.95;100263.02;;;;-51
2021/06/27 10:02:39;;;;;;;6.41;3.72;;;;;;;21.87;68.94;100263.27;;;;-52
2021/06/27 10:05:39;;;;;;;4.30;3.93;;;;;;;21.88;68.93;100255.73;;;;-56
2021/06/27 10:08:40;;;;;;;4.21;3.81;;;;;;;21.88;68.96;100254.52;;;;-51
2021/06/27 10:11:39;;;;;;;4.06;3.63;;;;;;;21.88;68.94;100256.48;;;;-54
2021/06/27 10:14:39;;;;;;;4.14;3.74;;;;;;;21.89;68.75;100257.02;;;;-48
2021/06/27 10:17:39;;;;;;;3.99;3.66;;;;;;;21.89;68.65;100257.95;;;;-48
2021/06/27 10:20:39;;;;;;;4.76;3.79;;;;;;;21.89;68.83;100252.62;;;;-51
2021/06/27 10:23:39;;;;;;;3.99;3.68;;;;;;;21.90;68.91;100255.16;;;;-51
2021/06/27 10:26:39;;;;;;;4.26;3.87;;;;;;;21.91;68.95;100250.89;;;;-52
2021/06/27 10:29:39;;;;;;;3.93;3.63;;;;;;;21.92;68.80;100251.14;;;;-52
2021/06/27 10:32:42;;;;;;;8.93;3.77;;;;;;;21.94;68.82;100252.37;;;;-51
2021/06/27 10:35:39;;;;;;;5.67;3.73;;;;;;;21.94;68.79;100251.87;;;;-51
2021/06/27 10:38:39;;;;;;;4.55;3.57;;;;;;;21.95;68.82;100250.05;;;;-51
2021/06/27 10:41:39;;;;;;;5.22;3.66;;;;;;;21.94;68.61;100242.16;;;;-52
2021/06/27 10:44:39;;;;;;;3.80;3.49;;;;;;;21.93;68.54;100242.07;;;;-51
2021/06/27 10:47:39;;;;;;;4.47;3.75;;;;;;;21.93;68.59;100233.51;;;;-51
2021/06/27 10:50:39;;;;;;;5.61;3.60;;;;;;;21.91;68.58;100233.52;;;;-51
2021/06/27 10:53:39;;;;;;;4.51;3.67;;;;;;;21.90;68.51;100232.39;;;;-52
2021/06/27 10:58:39;;;;;;;3.70;3.40;;;;;;;21.89;68.46;100229.55;;;;-51
2021/06/27 11:01:39;;;;;;;4.04;3.57;;;;;;;21.89;68.40;100230.67;;;;-52
2021/06/27 11:04:39;;;;;;;4.01;3.61;;;;;;;21.88;68.38;100232.16;;;;-51
2021/06/27 11:07:39;;;;;;;4.05;3.59;;;;;;;21.87;68.30;100229.73;;;;-51
2021/06/27 11:10:39;;;;;;;3.70;3.40;;;;;;;21.87;68.27;100226.23;;;;-52
2021/06/27 11:13:39;;;;;;;3.61;3.31;;;;;;;21.87;68.23;100226.70;;;;-51
2021/06/27 11:16:39;;;;;;;4.51;3.59;;;;;;;21.87;68.19;100222.95;;;;-51
2021/06/27 11:19:40;;;;;;;3.87;3.57;;;;;;;21.86;68.18;100225.66;;;;-51
2021/06/27 11:22:39;;;;;;;3.83;3.46;;;;;;;21.86;68.16;100227.45;;;;-51
2021/06/27 11:25:39;;;;;;;3.67;3.37;;;;;;;21.85;68.14;100219.55;;;;-52
2021/06/27 11:28:39;;;;;;;3.63;3.33;;;;;;;21.85;68.08;100218.62;;;;-51
2021/06/27 11:31:39;;;;;;;3.61;3.31;;;;;;;21.84;68.14;100218.56;;;;-52
2021/06/27 11:34:39;;;;;;;4.35;3.50;;;;;;;21.85;68.08;100214.72;;;;-52
2021/06/27 11:37:40;;;;;;;3.87;3.53;;;;;;;21.85;68.04;100212.54;;;;-51
2021/06/27 11:40:39;;;;;;;3.35;3.05;;;;;;;21.84;68.07;100212.93;;;;-51
2021/06/27 11:43:39;;;;;;;3.59;3.29;;;;;;;21.84;68.04;100210.08;;;;-52
2021/06/27 11:46:39;;;;;;;4.41;3.37;;;;;;;21.84;68.07;100208.45;;;;-51
2021/06/27 11:49:39;;;;;;;4.37;3.32;;;;;;;21.84;68.06;100203.16;;;;-52
2021/06/27 11:52:39;;;;;;;3.55;3.25;;;;;;;21.83;68.04;100197.59;;;;-52
2021/06/27 11:55:39;;;;;;;3.65;3.35;;;;;;;21.83;68.04;100196.16;;;;-51
2021/06/27 11:58:39;;;;;;;3.70;3.40;;;;;;;21.83;68.00;100192.30;;;;-52
2021/06/27 12:01:39;;;;;;;3.66;3.36;;;;;;;21.83;67.93;100189.37;;;;-58
2021/06/27 12:04:39;;;;;;;3.82;3.31;;;;;;;21.82;67.99;100185.63;;;;-57
2021/06/27 12:07:40;;;;;;;3.65;3.35;;;;;;;21.82;67.94;100188.58;;;;-58
2021/06/27 12:10:39;;;;;;;3.50;3.17;;;;;;;21.82;67.95;100188.40;;;;-57
2021/06/27 12:13:39;;;;;;;3.60;3.30;;;;;;;21.82;67.95;100183.10;;;;-58
2021/06/27 12:16:39;;;;;;;3.97;3.23;;;;;;;21.80;67.99;100183.84;;;;-58
2021/06/27 12:19:39;;;;;;;4.33;3.25;;;;;;;21.80;67.94;100176.82;;;;-58
2021/06/27 12:22:39;;;;;;;3.49;3.19;;;;;;;21.80;67.95;100184.00;;;;-58
2021/06/27 12:25:39;;;;;;;3.57;3.27;;;;;;;21.80;67.90;100179.27;;;;-57
2021/06/27 12:28:39;;;;;;;3.58;3.28;;;;;;;21.80;67.92;100175.67;;;;-58
2021/06/27 12:31:40;;;;;;;4.07;3.07;;;;;;;21.80;67.90;100174.38;;;;-58
2021/06/27 12:34:39;;;;;;;3.37;3.07;;;;;;;21.80;67.94;100168.50;;;;-58
2021/06/27 12:37:39;;;;;;;3.40;3.10;;;;;;;21.80;67.87;100162.47;;;;-58
2021/06/27 12:40:39;;;;;;;3.47;3.15;;;;;;;21.81;68.03;100160.44;;;;-57
2021/06/27 12:43:39;;;;;;;6.31;3.42;;;;;;;21.82;68.16;100157.33;;;;-56
2021/06/27 12:46:39;;;;;;;5.06;3.38;;;;;;;21.82;68.16;100154.88;;;;-56
2021/06/27 12:49:40;;;;;;;3.39;3.09;;;;;;;21.81;68.09;100155.22;;;;-55
2021/06/27 12:52:39;;;;;;;3.67;3.27;;;;;;;21.82;68.14;100157.41;;;;-56
2021/06/27 12:55:39;;;;;;;3.50;3.13;;;;;;;21.81;68.18;100162.06;;;;-56
2021/06/27 12:58:39;;;;;;;3.95;3.02;;;;;;;21.81;68.08;100160.20;;;;-56
2021/06/27 13:01:39;;;;;;;3.35;3.05;;;;;;;21.81;68.07;100159.28;;;;-55
2021/06/27 13:04:39;;;;;;;3.54;2.97;;;;;;;21.80;68.03;100160.50;;;;-55
2021/06/27 13:07:40;;;;;;;3.59;3.12;;;;;;;21.80;68.04;100155.05;;;;-56
2021/06/27 13:10:39;;;;;;;4.20;3.12;;;;;;;21.80;68.01;100153.33;;;;-56
2021/06/27 13:13:39;;;;;;;3.45;3.05;;;;;;;21.80;67.96;100150.23;;;;-55
2021/06/27 13:16:39;;;;;;;3.42;3.03;;;;;;;21.80;67.94;100149.90;;;;-52
2021/06/27 13:19:39;;;;;;;7.35;3.27;;;;;;;21.81;68.15;100150.62;;;;-57
2021/06/27 13:22:39;;;;;;;3.29;3.02;;;;;;;21.83;68.43;100149.48;;;;-56
2021/06/27 13:25:40;;;;;;;7.64;3.59;;;;;;;21.85;68.52;100153.38;;;;-60
2021/06/27 13:28:39;;;;;;;5.13;3.23;;;;;;;21.87;68.73;100143.23;;;;-55
2021/06/27 13:31:39;;;;;;;7.62;3.49;;;;;;;21.90;69.00;100143.80;;;;-57
2021/06/27 13:34:39;;;;;;;6.43;3.18;;;;;;;21.91;68.88;100143.61;;;;-55
2021/06/27 13:37:39;;;;;;;6.04;3.51;;;;;;;21.93;69.00;100141.23;;;;-49
2021/06/27 13:40:39;;;;;;;6.53;3.30;;;;;;;21.95;68.85;100141.55;;;;-55
2021/06/27 13:43:39;;;;;;;8.79;3.28;;;;;;;21.97;69.04;100150.17;;;;-57
2021/06/27 13:46:40;;;;;;;6.71;3.05;;;;;;;21.98;69.32;100149.69;;;;-51
2021/06/27 13:49:39;;;;;;;4.88;3.18;;;;;;;21.98;69.32;100139.31;;;;-55
2021/06/27 13:52:39;;;;;;;8.75;3.47;;;;;;;21.99;69.32;100130.89;;;;-59
2021/06/27 13:55:39;;;;;;;6.48;3.21;;;;;;;21.99;69.19;100125.25;;;;-57
2021/06/27 13:58:39;;;;;;;7.91;3.51;;;;;;;22.01;69.06;100115.70;;;;-57
2021/06/27 14:01:42;;;;;;;5.55;3.23;;;;;;;22.02;69.23;100113.59;;;;-58
2021/06/27 14:04:39;;;;;;;6.88;3.31;;;;;;;22.03;68.94;100122.63;;;;-59
2021/06/27 14:07:39;;;;;;;6.70;3.33;;;;;;;22.03;69.01;100125.48;;;;-49
2021/06/27 14:10:39;;;;;;;7.23;3.31;;;;;;;22.04;68.92;100123.09;;;;-50
2021/06/27 14:13:39;;;;;;;8.05;3.36;;;;;;;22.04;68.97;100119.28;;;;-50
2021/06/27 14:16:44;;;;;;;6.87;3.27;;;;;;;22.05;69.11;100111.58;;;;-51
2021/06/27 14:19:41;;;;;;;5.35;3.17;;;;;;;22.06;69.15;100115.89;;;;-61
2021/06/27 14:22:39;;;;;;;5.74;3.14;;;;;;;22.06;69.22;100114.93;;;;-61
2021/06/27 14:25:39;;;;;;;4.47;3.22;;;;;;;22.07;69.12;100116.46;;;;-58
2021/06/27 14:28:39;;;;;;;4.55;3.25;;;;;;;22.07;69.04;100120.22;;;;-53
2021/06/27 14:31:39;;;;;;;6.74;3.22;;;;;;;22.08;69.14;100118.16;;;;-53
2021/06/27 14:34:39;;;;;;;4.77;3.23;;;;;;;22.08;69.06;100118.34;;;;-51
2021/06/27 14:37:39;;;;;;;5.21;3.19;;;;;;;22.08;68.99;100114.42;;;;-51
2021/06/27 14:40:39;;;;;;;6.70;3.11;;;;;;;22.09;69.09;100123.70;;;;-51
2021/06/27 14:43:39;;;;;;;6.57;3.33;;;;;;;22.09;68.94;100127.62;;;;-51
2021/06/27 14:46:39;;;;;;;5.01;3.06;;;;;;;22.10;68.94;100126.38;;;;-58
2021/06/27 14:49:39;;;;;;;4.74;2.98;;;;;;;22.09;68.70;100123.53;;;;-57
2021/06/27 14:52:39;;;;;;;7.39;3.25;;;;;;;22.08;68.62;100123.97;;;;-63
2021/06/27 14:55:39;;;;;;;4.52;2.93;;;;;;;22.08;68.92;100129.34;;;;-61
2021/06/27 14:58:40;;;;;;;6.77;3.10;;;;;;;22.09;68.94;100130.97;;;;-60
2021/06/27 15:01:39;;;;;;;4.71;3.07;;;;;;;22.10;69.00;100131.03;;;;-50
2021/06/27 15:04:39;;;;;;;4.35;3.19;;;;;;;22.10;68.81;100135.04;;;;-54
2021/06/27 15:07:39;;;;;;;4.47;3.44;;;;;;;22.11;68.88;100134.63;;;;-60
2021/06/27 15:10:39;;;;;;;7.29;3.21;;;;;;;22.12;68.96;100134.36;;;;-61
2021/06/27 15:13:39;;;;;;;6.25;3.26;;;;;;;22.12;68.90;100137.94;;;;-58
2021/06/27 15:16:39;;;;;;;5.69;3.08;;;;;;;22.13;68.97;100132.65;;;;-60
2021/06/27 15:19:39;;;;;;;3.55;2.93;;;;;;;22.14;68.83;100138.50;;;;-60
2021/06/27 15:22:39;;;;;;;4.53;3.06;;;;;;;22.14;68.83;100137.10;;;;-57
2021/06/27 15:25:39;;;;;;;16.79;3.42;;;;;;;22.15;68.96;100134.75;;;;-54
2021/06/27 15:28:39;;;;;;;5.67;3.28;;;;;;;22.15;68.96;100131.32;;;;-56
2021/06/27 15:31:38;;;;;;;10.07;3.51;;;;;;;22.15;69.16;100130.33;;;;-56
2021/06/27 15:34:39;;;;;;;6.19;3.30;;;;;;;22.17;69.16;100131.95;;;;-57
2021/06/27 15:37:39;;;;;;;8.39;3.16;;;;;;;22.16;69.23;100131.70;;;;-60
2021/06/27 15:40:40;;;;;;;10.63;3.35;;;;;;;22.18;69.20;100135.52;;;;-59
2021/06/27 15:43:39;;;;;;;10.01;3.30;;;;;;;22.18;69.18;100139.19;;;;-55
2021/06/27 15:46:39;;;;;;;7.65;3.48;;;;;;;22.18;69.06;100138.22;;;;-59
2021/06/27 15:49:39;;;;;;;7.77;3.40;;;;;;;22.19;69.04;100141.00;;;;-60
2021/06/27 15:52:39;;;;;;;6.60;3.41;;;;;;;22.20;69.23;100141.70;;;;-59
2021/06/27 15:55:39;;;;;;;8.50;3.43;;;;;;;22.20;69.32;100143.42;;;;-53
2021/06/27 15:58:39;;;;;;;9.48;3.42;;;;;;;22.20;69.25;100144.00;;;;-60
2021/06/27 16:01:39;;;;;;;7.67;3.15;;;;;;;22.20;69.09;100146.44;;;;-52
2021/06/27 16:04:39;;;;;;;8.38;3.29;;;;;;;22.22;69.16;100148.06;;;;-48
2021/06/27 16:07:39;;;;;;;11.72;3.25;;;;;;;22.22;69.00;100153.52;;;;-50
2021/06/27 16:10:38;;;;;;;11.64;3.29;;;;;;;22.23;69.14;100154.52;;;;-50
2021/06/27 16:13:39;;;;;;;8.73;3.25;;;;;;;22.21;69.07;100156.80;;;;-49
2021/06/27 16:16:39;;;;;;;10.21;3.36;;;;;;;22.22;69.13;100155.23;;;;-57
2021/06/27 16:19:39;;;;;;;7.74;3.36;;;;;;;22.22;69.12;100149.12;;;;-59
2021/06/27 16:22:39;;;;;;;10.33;3.24;;;;;;;22.22;69.18;100143.64;;;;-58
2021/06/27 16:25:39;;;;;;;7.08;3.19;;;;;;;22.22;69.11;100141.03;;;;-57
2021/06/27 16:28:39;;;;;;;8.83;3.21;;;;;;;22.22;69.17;100135.81;;;;-57
2021/06/27 16:31:39;;;;;;;5.33;2.91;;;;;;;22.23;69.14;100133.05;;;;-57
2021/06/27 16:34:38;;;;;;;6.49;3.10;;;;;;;22.23;69.02;100135.90;;;;-59
2021/06/27 16:37:39;;;;;;;6.91;3.06;;;;;;;22.22;69.10;100134.84;;;;-51
2021/06/27 16:40:39;;;;;;;6.13;2.90;;;;;;;22.22;69.16;100136.80;;;;-51
2021/06/27 16:43:39;;;;;;;4.45;3.10;;;;;;;22.22;69.11;100134.58;;;;-53